sensor_id;sensor_type;location;lat;lon;timestamp;pressure;altitude;pressure_sealevel;temperature;humidity
7754;BME280;3921;42.266;23.122;2022-12-15T00:10:23;94628.50;;;5.90;79.25
7754;BME280;3921;42.266;23.122;2022-12-15T00:45:23;94107.03;;;2.24;79.92
7754;BME280;3921;42.266;23.122;2022-12-15T00:54:13;94132.72;;;2.58;79.40
7754;BME280;3921;42.266;23.122;2022-12-15T00:57:06;94681.72;;;5.94;80.12
7754;BME280;3921;42.266;23.122;2022-12-15T00:59:55;94664.25;;;5.86;80.86
7754;BME280;3921;42.266;23.122;2022-12-15T01:02:44;94569.59;;;5.20;81.74
7754;BME280;3921;42.266;23.122;2022-12-15T01:05:28;94589.53;;;5.25;81.28
7754;BME280;3921;42.266;23.122;2022-12-15T01:08:13;94202.22;;;2.76;81.75
7754;BME280;3921;42.266;23.122;2022-12-15T01:10:59;94703.34;;;6.04;82.10
7754;BME280;3921;42.266;23.122;2022-12-15T01:16:34;94172.41;;;2.56;81.74
7754;BME280;3921;42.266;23.122;2022-12-15T01:19:20;94623.56;;;5.35;82.00
7754;BME280;3921;42.266;23.122;2022-12-15T01:22:06;94271.69;;;2.84;82.40
7754;BME280;3921;42.266;23.122;2022-12-15T01:24:36;94245.19;;;2.75;82.38
7754;BME280;3921;42.266;23.122;2022-12-15T01:27:07;94280.03;;;3.00;82.07
7754;BME280;3921;42.266;23.122;2022-12-15T01:29:36;94232.81;;;2.78;82.38
7754;BME280;3921;42.266;23.122;2022-12-15T01:32:04;94260.97;;;2.91;82.41
7754;BME280;3921;42.266;23.122;2022-12-15T01:34:35;94530.56;;;4.58;82.75
7754;BME280;3921;42.266;23.122;2022-12-15T01:37:04;94493.16;;;4.11;82.98
7754;BME280;3921;42.266;23.122;2022-12-15T01:39:32;94270.88;;;2.86;83.65
7754;BME280;3921;42.266;23.122;2022-12-15T01:42:16;94328.06;;;3.14;83.63
7754;BME280;3921;42.266;23.122;2022-12-15T01:44:49;94342.13;;;3.13;83.97
7754;BME280;3921;42.266;23.122;2022-12-15T01:47:20;94339.59;;;3.03;84.60
7754;BME280;3921;42.266;23.122;2022-12-15T01:49:56;94647.63;;;5.07;84.80
7754;BME280;3921;42.266;23.122;2022-12-15T01:52:24;94261.72;;;2.75;85.06
7754;BME280;3921;42.266;23.122;2022-12-15T01:54:54;94389.41;;;3.44;84.60
7754;BME280;3921;42.266;23.122;2022-12-15T01:57:26;94734.06;;;5.83;85.45
7754;BME280;3921;42.266;23.122;2022-12-15T01:59:56;94560.44;;;4.66;85.12
7754;BME280;3921;42.266;23.122;2022-12-15T02:02:27;94756.50;;;6.07;85.17
7754;BME280;3921;42.266;23.122;2022-12-15T02:04:57;94289.94;;;2.98;85.25
7754;BME280;3921;42.266;23.122;2022-12-15T02:07:26;94661.78;;;5.46;86.82
7754;BME280;3921;42.266;23.122;2022-12-15T02:09:56;94252.72;;;2.87;86.28
7754;BME280;3921;42.266;23.122;2022-12-15T02:12:31;94399.47;;;3.88;86.41
7754;BME280;3921;42.266;23.122;2022-12-15T02:15:16;94326.47;;;3.37;86.68
7754;BME280;3921;42.266;23.122;2022-12-15T02:17:50;94585.28;;;4.64;87.03
7754;BME280;3921;42.266;23.122;2022-12-15T02:20:43;94458.34;;;4.12;87.37
7754;BME280;3921;42.266;23.122;2022-12-15T02:23:43;94778.97;;;6.10;88.75
7754;BME280;3921;42.266;23.122;2022-12-15T02:29:10;94744.06;;;6.20;88.29
7754;BME280;3921;42.266;23.122;2022-12-15T02:31:51;94733.25;;;6.08;87.69
7754;BME280;3921;42.266;23.122;2022-12-15T02:34:31;94239.41;;;2.75;88.45
7754;BME280;3921;42.266;23.122;2022-12-15T02:37:04;94188.06;;;2.52;88.31
7754;BME280;3921;42.266;23.122;2022-12-15T02:39:32;94251.91;;;3.01;88.97
7754;BME280;3921;42.266;23.122;2022-12-15T02:41:59;94538.88;;;4.68;89.17
7754;BME280;3921;42.266;23.122;2022-12-15T02:44:30;94191.50;;;2.76;88.92
7754;BME280;3921;42.266;23.122;2022-12-15T02:47:12;94231.25;;;3.14;89.29
7754;BME280;3921;42.266;23.122;2022-12-15T02:49:52;94213.00;;;2.92;89.42
7754;BME280;3921;42.266;23.122;2022-12-15T02:52:33;94753.19;;;6.33;89.72
7754;BME280;3921;42.266;23.122;2022-12-15T02:57:47;94642.66;;;5.67;89.96
7754;BME280;3921;42.266;23.122;2022-12-15T03:00:19;94589.53;;;5.19;90.28
7754;BME280;3921;42.266;23.122;2022-12-15T03:02:51;94217.19;;;3.01;90.01
7754;BME280;3921;42.266;23.122;2022-12-15T03:05:21;94464.97;;;4.12;90.84
7754;BME280;3921;42.266;23.122;2022-12-15T03:07:50;94258.56;;;3.08;90.85
7754;BME280;3921;42.266;23.122;2022-12-15T03:10:20;94415.28;;;4.29;91.00
7754;BME280;3921;42.266;23.122;2022-12-15T03:12:48;94625.25;;;5.53;91.06
7754;BME280;3921;42.266;23.122;2022-12-15T03:15:17;94362.19;;;3.90;91.22
7754;BME280;3921;42.266;23.122;2022-12-15T03:17:46;94359.72;;;4.07;90.24
7754;BME280;3921;42.266;23.122;2022-12-15T03:20:16;94206.47;;;3.18;89.96
7754;BME280;3921;42.266;23.122;2022-12-15T03:22:45;94155.97;;;2.90;90.28
7754;BME280;3921;42.266;23.122;2022-12-15T03:25:13;94717.41;;;6.35;90.28
7754;BME280;3921;42.266;23.122;2022-12-15T03:27:41;94206.44;;;3.09;90.17
7754;BME280;3921;42.266;23.122;2022-12-15T03:30:12;94729.91;;;6.32;90.71
7754;BME280;3921;42.266;23.122;2022-12-15T03:32:40;94418.63;;;4.37;90.89
7754;BME280;3921;42.266;23.122;2022-12-15T03:35:09;94126.97;;;2.66;90.34
7754;BME280;3921;42.266;23.122;2022-12-15T03:37:45;94509.03;;;4.77;90.83
7754;BME280;3921;42.266;23.122;2022-12-15T03:40:16;94261.91;;;3.16;90.24
7754;BME280;3921;42.266;23.122;2022-12-15T03:42:44;94732.38;;;6.40;91.29
7754;BME280;3921;42.266;23.122;2022-12-15T03:45:15;94234.56;;;3.14;90.52
7754;BME280;3921;42.266;23.122;2022-12-15T03:47:45;94227.13;;;3.05;90.83
7754;BME280;3921;42.266;23.122;2022-12-15T03:50:15;94239.59;;;3.30;89.79
7754;BME280;3921;42.266;23.122;2022-12-15T03:52:44;94742.38;;;6.31;90.97
7754;BME280;3921;42.266;23.122;2022-12-15T03:55:11;94198.94;;;2.91;90.59
7754;BME280;3921;42.266;23.122;2022-12-15T03:57:38;94494.06;;;4.46;91.77
7754;BME280;3921;42.266;23.122;2022-12-15T04:00:07;94323.13;;;3.17;91.34
7754;BME280;3921;42.266;23.122;2022-12-15T04:02:34;94790.63;;;6.25;91.37
7754;BME280;3921;42.266;23.122;2022-12-15T04:05:02;94244.53;;;3.16;91.64
7754;BME280;3921;42.266;23.122;2022-12-15T04:07:29;94431.88;;;4.26;91.97
7754;BME280;3921;42.266;23.122;2022-12-15T04:09:58;94256.94;;;3.20;92.07
7754;BME280;3921;42.266;23.122;2022-12-15T04:12:25;94668.41;;;5.76;92.07
7754;BME280;3921;42.266;23.122;2022-12-15T04:14:52;94560.47;;;5.18;91.76
7754;BME280;3921;42.266;23.122;2022-12-15T04:17:19;94419.41;;;4.04;91.37
7754;BME280;3921;42.266;23.122;2022-12-15T04:19:47;94655.13;;;5.64;92.41
7754;BME280;3921;42.266;23.122;2022-12-15T04:22:34;94324.78;;;3.24;92.35
7754;BME280;3921;42.266;23.122;2022-12-15T04:25:11;94528.09;;;4.73;92.25
7754;BME280;3921;42.266;23.122;2022-12-15T04:33:34;94594.47;;;4.82;92.63
7754;BME280;3921;42.266;23.122;2022-12-15T04:36:26;94268.47;;;2.99;92.62
7754;BME280;3921;42.266;23.122;2022-12-15T04:39:11;94228.72;;;2.89;92.29
7754;BME280;3921;42.266;23.122;2022-12-15T04:41:59;94329.75;;;3.16;92.41
7754;BME280;3921;42.266;23.122;2022-12-15T04:44:45;94813.88;;;6.39;93.46
7754;BME280;3921;42.266;23.122;2022-12-15T04:47:29;94719.94;;;5.65;94.24
7754;BME280;3921;42.266;23.122;2022-12-15T04:50:14;94432.56;;;3.77;92.70
7754;BME280;3921;42.266;23.122;2022-12-15T04:53:06;94700.84;;;5.69;92.93
7754;BME280;3921;42.266;23.122;2022-12-15T04:55:51;94340.56;;;3.38;92.14
7754;BME280;3921;42.266;23.122;2022-12-15T04:58:37;94640.16;;;4.99;92.69
7754;BME280;3921;42.266;23.122;2022-12-15T05:01:21;94562.03;;;4.42;92.89
7754;BME280;3921;42.266;23.122;2022-12-15T05:04:06;94354.53;;;3.13;92.83
7754;BME280;3921;42.266;23.122;2022-12-15T05:06:50;94902.03;;;6.40;93.74
7754;BME280;3921;42.266;23.122;2022-12-15T05:09:35;94843.81;;;6.06;93.93
7754;BME280;3921;42.266;23.122;2022-12-15T05:12:19;94788.03;;;5.59;94.00
7754;BME280;3921;42.266;23.122;2022-12-15T05:15:06;94808.00;;;5.81;93.44
7754;BME280;3921;42.266;23.122;2022-12-15T05:17:50;94777.22;;;5.60;93.41
7754;BME280;3921;42.266;23.122;2022-12-15T05:20:35;94894.56;;;6.28;93.59
7754;BME280;3921;42.266;23.122;2022-12-15T05:23:19;94767.22;;;5.38;94.19
7754;BME280;3921;42.266;23.122;2022-12-15T05:26:03;94737.31;;;5.22;94.31
7754;BME280;3921;42.266;23.122;2022-12-15T05:28:48;94941.16;;;6.46;94.79
7754;BME280;3921;42.266;23.122;2022-12-15T05:31:34;94949.47;;;6.52;94.87
7754;BME280;3921;42.266;23.122;2022-12-15T05:34:20;94947.00;;;6.55;95.19
7754;BME280;3921;42.266;23.122;2022-12-15T05:36:51;94946.97;;;6.58;94.92
7754;BME280;3921;42.266;23.122;2022-12-15T05:39:21;94439.84;;;3.28;95.04
7754;BME280;3921;42.266;23.122;2022-12-15T05:41:55;94722.31;;;5.15;95.64
7754;BME280;3921;42.266;23.122;2022-12-15T05:44:28;94458.91;;;3.42;95.64
7754;BME280;3921;42.266;23.122;2022-12-15T05:47:01;94419.06;;;3.15;95.56
7754;BME280;3921;42.266;23.122;2022-12-15T06:00:43;94389.25;;;3.09;95.72
7754;BME280;3921;42.266;23.122;2022-12-15T06:03:12;94641.75;;;4.76;96.26
7754;BME280;3921;42.266;23.122;2022-12-15T06:11:02;94983.59;;;7.05;95.98
7754;BME280;3921;42.266;23.122;2022-12-15T06:13:31;94996.97;;;7.00;96.14
7754;BME280;3921;42.266;23.122;2022-12-15T06:16:08;94892.88;;;6.24;97.15
7754;BME280;3921;42.266;23.122;2022-12-15T06:18:44;95006.94;;;7.00;97.07
7754;BME280;3921;42.266;23.122;2022-12-15T06:21:20;94529.50;;;3.84;97.02
7754;BME280;3921;42.266;23.122;2022-12-15T06:23:55;95006.94;;;6.92;97.65
7754;BME280;3921;42.266;23.122;2022-12-15T06:26:24;94673.25;;;4.71;98.65
7754;BME280;3921;42.266;23.122;2022-12-15T06:28:53;94961.16;;;6.67;98.95
7754;BME280;3921;42.266;23.122;2022-12-15T06:31:25;94578.50;;;4.13;98.90
7754;BME280;3921;42.266;23.122;2022-12-15T06:33:54;94688.22;;;4.85;98.47
7754;BME280;3921;42.266;23.122;2022-12-15T07:31:24;94511.16;;;3.59;98.73
7754;BME280;3921;42.266;23.122;2022-12-15T07:33:53;95102.72;;;7.37;99.25
7754;BME280;3921;42.266;23.122;2022-12-15T07:36:25;95076.91;;;7.36;99.64
7754;BME280;3921;42.266;23.122;2022-12-15T07:39:10;94887.84;;;5.93;100.00
7754;BME280;3921;42.266;23.122;2022-12-15T07:41:43;94612.53;;;4.26;99.89
7754;BME280;3921;42.266;23.122;2022-12-15T07:44:23;94575.03;;;3.83;100.00
7754;BME280;3921;42.266;23.122;2022-12-15T07:46:53;94597.53;;;4.12;100.00
7754;BME280;3921;42.266;23.122;2022-12-15T07:54:55;94580.16;;;4.12;100.00
7754;BME280;3921;42.266;23.122;2022-12-15T13:37:56;94735.25;;;7.51;100.00
7754;BME280;3921;42.266;23.122;2022-12-15T13:40:54;94746.13;;;7.43;100.00
7754;BME280;3921;42.266;23.122;2022-12-15T13:46:30;94738.53;;;7.60;100.00
7754;BME280;3921;42.266;23.122;2022-12-15T13:52:01;95070.19;;;9.50;100.00
7754;BME280;3921;42.266;23.122;2022-12-15T13:54:34;94987.22;;;8.73;100.00
7754;BME280;3921;42.266;23.122;2022-12-15T13:57:10;94893.16;;;8.29;100.00
7754;BME280;3921;42.266;23.122;2022-12-15T13:59:48;95123.44;;;9.79;100.00
7754;BME280;3921;42.266;23.122;2022-12-15T14:02:23;94755.34;;;7.32;100.00
7754;BME280;3921;42.266;23.122;2022-12-15T14:17:24;95181.09;;;9.87;100.00
7754;BME280;3921;42.266;23.122;2022-12-15T14:19:52;94996.44;;;8.69;100.00
7754;BME280;3921;42.266;23.122;2022-12-15T14:22:54;95261.91;;;10.32;100.00
7754;BME280;3921;42.266;23.122;2022-12-15T14:25:34;94792.91;;;7.20;100.00
7754;BME280;3921;42.266;23.122;2022-12-15T14:28:24;94963.22;;;8.31;100.00
7754;BME280;3921;42.266;23.122;2022-12-15T14:31:01;94765.47;;;7.03;100.00
7754;BME280;3921;42.266;23.122;2022-12-15T14:47:19;95012.41;;;8.51;100.00
7754;BME280;3921;42.266;23.122;2022-12-15T14:52:33;94795.44;;;7.09;100.00
7754;BME280;3921;42.266;23.122;2022-12-15T14:57:56;94826.19;;;7.21;100.00
7754;BME280;3921;42.266;23.122;2022-12-15T15:00:54;94793.00;;;6.89;100.00
7754;BME280;3921;42.266;23.122;2022-12-15T15:04:00;95137.38;;;8.99;100.00
7754;BME280;3921;42.266;23.122;2022-12-15T15:10:27;94824.59;;;6.98;100.00
7754;BME280;3921;42.266;23.122;2022-12-15T15:13:16;94861.22;;;7.10;100.00
7754;BME280;3921;42.266;23.122;2022-12-15T15:15:52;94759.81;;;6.60;100.00
7754;BME280;3921;42.266;23.122;2022-12-15T15:18:29;94892.00;;;7.18;100.00
7754;BME280;3921;42.266;23.122;2022-12-15T15:24:37;94996.78;;;7.97;100.00
7754;BME280;3921;42.266;23.122;2022-12-15T15:27:24;95055.88;;;8.26;100.00
7754;BME280;3921;42.266;23.122;2022-12-15T15:29:51;94773.13;;;6.47;100.00
7754;BME280;3921;42.266;23.122;2022-12-15T15:32:26;94955.22;;;7.55;100.00
7754;BME280;3921;42.266;23.122;2022-12-15T15:35:04;94905.28;;;7.41;100.00
7754;BME280;3921;42.266;23.122;2022-12-15T15:37:31;95061.78;;;8.14;100.00
7754;BME280;3921;42.266;23.122;2022-12-15T15:40:15;94981.84;;;7.70;100.00
7754;BME280;3921;42.266;23.122;2022-12-15T15:42:44;95161.63;;;8.95;100.00
7754;BME280;3921;42.266;23.122;2022-12-15T15:45:14;94845.44;;;6.88;100.00
7754;BME280;3921;42.266;23.122;2022-12-15T15:47:47;95006.03;;;7.66;100.00
7754;BME280;3921;42.266;23.122;2022-12-15T15:50:25;94898.69;;;7.04;100.00
7754;BME280;3921;42.266;23.122;2022-12-15T15:52:54;95080.06;;;8.36;100.00
7754;BME280;3921;42.266;23.122;2022-12-15T15:55:30;95010.97;;;7.85;100.00
7754;BME280;3921;42.266;23.122;2022-12-15T15:57:59;95204.28;;;8.80;100.00
7754;BME280;3921;42.266;23.122;2022-12-15T16:00:28;94843.78;;;6.79;100.00
7754;BME280;3921;42.266;23.122;2022-12-15T16:02:55;94920.28;;;7.32;100.00
7754;BME280;3921;42.266;23.122;2022-12-15T16:05:23;95015.22;;;7.58;100.00
7754;BME280;3921;42.266;23.122;2022-12-15T16:07:53;95020.19;;;7.66;100.00
7754;BME280;3921;42.266;23.122;2022-12-15T16:10:20;95237.66;;;8.87;100.00
7754;BME280;3921;42.266;23.122;2022-12-15T16:12:50;95359.34;;;9.75;100.00
7754;BME280;3921;42.266;23.122;2022-12-15T16:15:20;94992.75;;;7.38;100.00
7754;BME280;3921;42.266;23.122;2022-12-15T16:17:55;94877.94;;;6.67;100.00
7754;BME280;3921;42.266;23.122;2022-12-15T16:20:36;95306.81;;;9.41;100.00
7754;BME280;3921;42.266;23.122;2022-12-15T16:23:17;95078.50;;;7.94;100.00
7754;BME280;3921;42.266;23.122;2022-12-15T16:26:15;94841.34;;;6.50;100.00
7754;BME280;3921;42.266;23.122;2022-12-15T16:29:16;94896.25;;;6.65;100.00
7754;BME280;3921;42.266;23.122;2022-12-15T16:34:32;94937.81;;;7.12;100.00
7754;BME280;3921;42.266;23.122;2022-12-15T16:37:41;95391.06;;;9.87;100.00
7754;BME280;3921;42.266;23.122;2022-12-15T16:40:30;94995.28;;;7.17;100.00
7754;BME280;3921;42.266;23.122;2022-12-15T16:43:17;94996.09;;;7.14;100.00
7754;BME280;3921;42.266;23.122;2022-12-15T16:45:47;94952.81;;;6.80;100.00
7754;BME280;3921;42.266;23.122;2022-12-15T16:48:16;95017.75;;;7.31;100.00
7754;BME280;3921;42.266;23.122;2022-12-15T16:50:45;95001.94;;;7.09;100.00
7754;BME280;3921;42.266;23.122;2022-12-15T16:53:16;95156.88;;;8.05;100.00
7754;BME280;3921;42.266;23.122;2022-12-15T16:55:47;94918.69;;;6.67;100.00
7754;BME280;3921;42.266;23.122;2022-12-15T16:58:16;95318.59;;;9.12;100.00
7754;BME280;3921;42.266;23.122;2022-12-15T17:00:45;95069.38;;;7.38;100.00
7754;BME280;3921;42.266;23.122;2022-12-15T17:03:14;94860.47;;;6.31;100.00
7754;BME280;3921;42.266;23.122;2022-12-15T17:05:47;95087.72;;;7.55;100.00
7754;BME280;3921;42.266;23.122;2022-12-15T17:08:17;95380.31;;;9.49;100.00
7754;BME280;3921;42.266;23.122;2022-12-15T17:10:47;94994.44;;;7.03;100.00
7754;BME280;3921;42.266;23.122;2022-12-15T17:13:28;95352.81;;;9.29;100.00
7754;BME280;3921;42.266;23.122;2022-12-15T17:15:58;94902.88;;;6.36;100.00
7754;BME280;3921;42.266;23.122;2022-12-15T17:18:25;95189.38;;;8.17;100.00
7754;BME280;3921;42.266;23.122;2022-12-15T17:20:58;95125.22;;;7.77;100.00
7754;BME280;3921;42.266;23.122;2022-12-15T17:23:37;95182.69;;;8.16;100.00
7754;BME280;3921;42.266;23.122;2022-12-15T17:31:18;95219.38;;;8.28;100.00
7754;BME280;3921;42.266;23.122;2022-12-15T17:33:49;95061.91;;;7.12;100.00
7754;BME280;3921;42.266;23.122;2022-12-15T17:36:28;95266.97;;;8.36;100.00
7754;BME280;3921;42.266;23.122;2022-12-15T17:44:54;95045.25;;;7.00;100.00
7754;BME280;3921;42.266;23.122;2022-12-15T17:47:27;94983.59;;;6.61;100.00
7754;BME280;3921;42.266;23.122;2022-12-15T17:50:01;95337.88;;;8.87;100.00
7754;BME280;3921;42.266;23.122;2022-12-15T17:52:36;94959.44;;;6.26;100.00
7754;BME280;3921;42.266;23.122;2022-12-15T17:55:27;94964.44;;;6.31;100.00
7754;BME280;3921;42.266;23.122;2022-12-15T18:44:30;95080.09;;;6.57;100.00
7754;BME280;3921;42.266;23.122;2022-12-15T18:46:57;95070.13;;;6.60;100.00
7754;BME280;3921;42.266;23.122;2022-12-15T18:49:25;94908.50;;;5.68;100.00
7754;BME280;3921;42.266;23.122;2022-12-15T18:51:55;94945.94;;;5.74;100.00
7754;BME280;3921;42.266;23.122;2022-12-15T18:54:31;95135.97;;;7.05;100.00
7754;BME280;3921;42.266;23.122;2022-12-15T18:56:59;94996.78;;;6.11;100.00
7754;BME280;3921;42.266;23.122;2022-12-15T18:59:28;95025.13;;;6.27;100.00
7754;BME280;3921;42.266;23.122;2022-12-15T19:01:55;94965.06;;;5.79;100.00
7754;BME280;3921;42.266;23.122;2022-12-15T19:04:36;94858.53;;;5.31;100.00
7754;BME280;3921;42.266;23.122;2022-12-15T19:07:04;94935.09;;;5.63;100.00
7754;BME280;3921;42.266;23.122;2022-12-15T19:09:32;95040.88;;;6.18;100.00
7754;BME280;3921;42.266;23.122;2022-12-15T19:12:07;94881.78;;;5.30;100.00
7754;BME280;3921;42.266;23.122;2022-12-15T19:14:53;95435.56;;;8.64;100.00
7754;BME280;3921;42.266;23.122;2022-12-15T19:20:19;94910.00;;;5.32;100.00
7754;BME280;3921;42.266;23.122;2022-12-15T19:23:25;94986.63;;;5.77;100.00
7754;BME280;3921;42.266;23.122;2022-12-15T19:26:15;95131.75;;;6.72;100.00
7754;BME280;3921;42.266;23.122;2022-12-15T19:28:50;95282.69;;;7.51;100.00
7754;BME280;3921;42.266;23.122;2022-12-15T19:31:21;94936.59;;;5.36;100.00
7754;BME280;3921;42.266;23.122;2022-12-15T19:33:49;95479.84;;;8.75;100.00
7754;BME280;3921;42.266;23.122;2022-12-15T19:36:20;95203.28;;;6.70;100.00
7754;BME280;3921;42.266;23.122;2022-12-15T19:38:51;95315.25;;;7.63;100.00
7754;BME280;3921;42.266;23.122;2022-12-15T19:41:23;94935.59;;;5.10;100.00
7754;BME280;3921;42.266;23.122;2022-12-15T19:43:51;94900.59;;;4.84;100.00
7754;BME280;3921;42.266;23.122;2022-12-15T20:14:34;95539.03;;;8.41;100.00
7754;BME280;3921;42.266;23.122;2022-12-15T20:17:27;95021.00;;;4.93;100.00
7754;BME280;3921;42.266;23.122;2022-12-15T20:19:58;95314.97;;;6.94;100.00
7754;BME280;3921;42.266;23.122;2022-12-15T20:22:27;95076.06;;;5.28;100.00
7754;BME280;3921;42.266;23.122;2022-12-15T20:24:57;95072.66;;;5.19;100.00
7754;BME280;3921;42.266;23.122;2022-12-15T20:27:27;95286.56;;;6.75;100.00
7754;BME280;3921;42.266;23.122;2022-12-15T20:29:59;95142.84;;;5.74;100.00
7754;BME280;3921;42.266;23.122;2022-12-15T20:32:28;95021.78;;;4.92;100.00
7754;BME280;3921;42.266;23.122;2022-12-15T20:38:52;95523.06;;;8.25;100.00
7754;BME280;3921;42.266;23.122;2022-12-15T20:41:26;95001.97;;;5.04;100.00
7754;BME280;3921;42.266;23.122;2022-12-15T20:44:03;95186.38;;;6.19;100.00
7754;BME280;3921;42.266;23.122;2022-12-15T20:46:34;95114.41;;;5.46;100.00
7754;BME280;3921;42.266;23.122;2022-12-15T20:49:08;94961.81;;;4.62;100.00
7754;BME280;3921;42.266;23.122;2022-12-15T20:51:42;95036.72;;;4.89;100.00
7754;BME280;3921;42.266;23.122;2022-12-15T20:54:14;95018.41;;;4.84;100.00
7754;BME280;3921;42.266;23.122;2022-12-15T20:56:43;94999.22;;;4.71;100.00
7754;BME280;3921;42.266;23.122;2022-12-15T20:59:13;94991.81;;;4.77;100.00
7754;BME280;3921;42.266;23.122;2022-12-15T21:01:43;95513.81;;;8.02;100.00
7754;BME280;3921;42.266;23.122;2022-12-15T21:04:21;95105.97;;;5.33;100.00
7754;BME280;3921;42.266;23.122;2022-12-15T21:06:54;95014.16;;;4.71;100.00
7754;BME280;3921;42.266;23.122;2022-12-15T21:09:36;95328.16;;;6.72;100.00
7754;BME280;3921;42.266;23.122;2022-12-15T21:12:15;94963.38;;;4.50;100.00
7754;BME280;3921;42.266;23.122;2022-12-15T21:14:51;95016.47;;;4.52;100.00
7754;BME280;3921;42.266;23.122;2022-12-15T21:17:22;94982.53;;;4.59;100.00
7754;BME280;3921;42.266;23.122;2022-12-15T21:19:50;95020.91;;;4.83;100.00
7754;BME280;3921;42.266;23.122;2022-12-15T21:22:20;95015.84;;;4.75;100.00
7754;BME280;3921;42.266;23.122;2022-12-15T21:24:52;95210.41;;;6.04;100.00
7754;BME280;3921;42.266;23.122;2022-12-15T21:30:36;95538.84;;;8.08;100.00
7754;BME280;3921;42.266;23.122;2022-12-15T21:40:26;94999.19;;;4.65;100.00
7754;BME280;3921;42.266;23.122;2022-12-15T21:43:24;95044.81;;;4.65;99.60
7754;BME280;3921;42.266;23.122;2022-12-15T21:50:12;94997.31;;;4.45;99.65
7754;BME280;3921;42.266;23.122;2022-12-15T22:06:17;95537.09;;;7.90;100.00
7754;BME280;3921;42.266;23.122;2022-12-15T22:08:46;95058.34;;;4.93;99.64
7754;BME280;3921;42.266;23.122;2022-12-15T22:11:26;95155.19;;;5.62;100.00
7754;BME280;3921;42.266;23.122;2022-12-15T22:13:55;95413.41;;;7.24;99.97
7754;BME280;3921;42.266;23.122;2022-12-15T22:16:23;95055.84;;;4.95;99.54
7754;BME280;3921;42.266;23.122;2022-12-15T22:18:54;95523.84;;;8.03;100.00
7754;BME280;3921;42.266;23.122;2022-12-15T22:21:33;94983.53;;;4.81;99.94
7754;BME280;3921;42.266;23.122;2022-12-15T22:24:02;95040.03;;;4.90;99.41
7754;BME280;3921;42.266;23.122;2022-12-15T22:29:29;95379.25;;;7.24;100.00
7754;BME280;3921;42.266;23.122;2022-12-15T22:32:13;94921.97;;;4.59;100.00
7754;BME280;3921;42.266;23.122;2022-12-15T22:34:42;95052.91;;;5.42;100.00
7754;BME280;3921;42.266;23.122;2022-12-15T22:37:12;94965.31;;;4.82;100.00
7754;BME280;3921;42.266;23.122;2022-12-15T22:39:41;95197.31;;;6.37;100.00
7754;BME280;3921;42.266;23.122;2022-12-15T22:42:16;95150.56;;;6.04;100.00
7754;BME280;3921;42.266;23.122;2022-12-15T22:44:53;95102.97;;;5.74;100.00
7754;BME280;3921;42.266;23.122;2022-12-15T22:47:36;94966.94;;;4.78;100.00
7754;BME280;3921;42.266;23.122;2022-12-15T22:50:25;95002.63;;;4.80;100.00
7754;BME280;3921;42.266;23.122;2022-12-15T22:52:56;95005.13;;;4.82;100.00
7754;BME280;3921;42.266;23.122;2022-12-15T22:55:23;95353.44;;;7.24;100.00
7754;BME280;3921;42.266;23.122;2022-12-15T22:57:56;95051.22;;;5.39;100.00
7754;BME280;3921;42.266;23.122;2022-12-15T23:00:24;94982.69;;;4.76;100.00
7754;BME280;3921;42.266;23.122;2022-12-15T23:06:14;95502.16;;;8.04;100.00
7754;BME280;3921;42.266;23.122;2022-12-15T23:25:44;94936.94;;;4.63;100.00
7754;BME280;3921;42.266;23.122;2022-12-15T23:31:28;95527.22;;;8.16;100.00
7754;BME280;3921;42.266;23.122;2022-12-15T23:34:38;95519.72;;;8.14;100.00
7754;BME280;3921;42.266;23.122;2022-12-15T23:44:17;94982.00;;;4.95;100.00
7754;BME280;3921;42.266;23.122;2022-12-15T23:46:48;94948.84;;;4.99;100.00
7754;BME280;3921;42.266;23.122;2022-12-15T23:49:21;95149.78;;;6.18;100.00
7754;BME280;3921;42.266;23.122;2022-12-15T23:52:02;95278.38;;;7.01;100.00
7754;BME280;3921;42.266;23.122;2022-12-15T23:54:30;95163.81;;;5.99;100.00
7754;BME280;3921;42.266;23.122;2022-12-15T23:57:15;95511.41;;;8.24;100.00
